Time;durP1;ratioP1;P1;durP2;ratioP2;P2;SDS_P1;SDS_P2;PMS_P1;PMS_P2;Temp;Humidity;BMP_temperature;BMP_pressure;BME280_temperature;BME280_humidity;BME280_pressure;Samples;Min_cycle;Max_cycle;Signal;HPM_P1;HPM_P2
2022/02/10 00:05:59;;;;;;;6.75;3.50;;;;;;;;;;5027607;28;20037;-70
2022/02/10 00:20:44;;;;;;;8.80;4.05;;;;;;;;;;5029422;28;20043;-71
2022/02/10 00:35:59;;;;;;;9.90;4.20;;;;;;;;;;5032916;28;20021;-71
2022/02/10 00:38:55;;;;;;;7.68;3.88;;;;;;;;;;5047377;28;20029;-66
2022/02/10 00:41:41;;;;;;;8.63;4.05;;;;;;;;;;5031618;28;20060;-66
2022/02/10 00:44:26;;;;;;;7.40;4.03;;;;;;;;;;5033968;28;20388;-68
2022/02/10 00:47:11;;;;;;;9.60;3.60;;;;;;;;;;5032001;28;20075;-67
2022/02/10 00:49:59;;;;;;;8.05;4.35;;;;;;;;;;5028166;28;20043;-68
2022/02/10 00:52:45;;;;;;;8.27;4.05;;;;;;;;;;5033938;28;20367;-70
2022/02/10 00:55:33;;;;;;;8.80;4.28;;;;;;;;;;5026976;28;20060;-71
2022/02/10 00:58:31;;;;;;;11.23;4.25;;;;;;;;;;5033313;28;20029;-73
2022/02/10 01:10:30;;;;;;;7.45;3.80;;;;;;;;;;5044309;28;20029;-74
2022/02/10 01:31:02;;;;;;;5.85;3.05;;;;;;;;;;5043698;28;20504;-72
2022/02/10 01:33:47;;;;;;;8.10;3.92;;;;;;;;;;5033363;28;20032;-74
2022/02/10 01:36:33;;;;;;;11.25;3.65;;;;;;;;;;5037248;28;20064;-72
2022/02/10 01:39:23;;;;;;;11.27;3.60;;;;;;;;;;5028214;28;20036;-71
2022/02/10 02:03:26;;;;;;;7.88;4.47;;;;;;;;;;5045932;28;20021;-69
2022/02/10 02:06:20;;;;;;;5.63;3.40;;;;;;;;;;5045437;28;20091;-67
2022/02/10 02:09:10;;;;;;;6.38;3.78;;;;;;;;;;5050114;28;20029;-67
2022/02/10 02:11:55;;;;;;;5.43;2.95;;;;;;;;;;5029970;28;20532;-72
2022/02/10 02:14:40;;;;;;;7.85;3.22;;;;;;;;;;5036291;28;20187;-70
2022/02/10 02:17:26;;;;;;;4.63;2.80;;;;;;;;;;5036309;28;20388;-70
2022/02/10 02:20:11;;;;;;;7.85;3.47;;;;;;;;;;5036345;28;20033;-70
2022/02/10 02:22:56;;;;;;;7.55;3.25;;;;;;;;;;5021497;28;20222;-72
2022/02/10 02:25:42;;;;;;;7.60;3.80;;;;;;;;;;5014840;28;20413;-70
2022/02/10 02:28:27;;;;;;;8.00;3.90;;;;;;;;;;5035727;28;20116;-70
2022/02/10 02:31:18;;;;;;;6.13;3.20;;;;;;;;;;5036223;28;20384;-68
2022/02/10 02:34:29;;;;;;;6.65;3.30;;;;;;;;;;5036295;28;20044;-72
2022/02/10 02:37:28;;;;;;;7.10;3.40;;;;;;;;;;5031636;28;20025;-68
2022/02/10 03:04:06;;;;;;;5.38;2.95;;;;;;;;;;5029923;28;20048;-68
2022/02/10 03:05:16;;;;;;;8.18;3.20;;;;;;;;;;5035696;28;20426;-65
2022/02/10 03:08:11;;;;;;;5.25;3.10;;;;;;;;;;5049350;28;20029;-65
2022/02/10 03:11:05;;;;;;;5.25;2.63;;;;;;;;;;5034888;28;20391;-67
2022/02/10 03:14:14;;;;;;;5.72;3.47;;;;;;;;;;5035391;28;20107;-66
2022/02/10 03:20:18;;;;;;;7.43;3.00;;;;;;;;;;5035812;28;20112;-67
2022/02/10 04:03:06;;;;;;;6.78;3.00;;;;;;;;;;5030419;28;20161;-70
2022/02/10 04:06:19;;;;;;;7.13;2.90;;;;;;;;;;5048574;28;20048;-70
2022/02/10 04:09:43;;;;;;;5.63;2.88;;;;;;;;;;5031084;28;20064;-70
2022/02/10 04:16:10;;;;;;;6.13;3.28;;;;;;;;;;5006804;28;20044;-69
2022/02/10 04:21:55;;;;;;;7.07;3.00;;;;;;;;;;5033637;28;20124;-71
2022/02/10 04:25:14;;;;;;;5.43;2.35;;;;;;;;;;5032978;28;20098;-70
2022/02/10 04:31:24;;;;;;;6.82;2.80;;;;;;;;;;5029656;28;20048;-70
2022/02/10 05:08:17;;;;;;;4.20;2.72;;;;;;;;;;5038038;28;20110;-65
2022/02/10 05:17:29;;;;;;;9.32;2.90;;;;;;;;;;5030680;28;20357;-67
2022/02/10 05:38:52;;;;;;;7.57;2.78;;;;;;;;;;5032658;28;20036;-66
2022/02/10 07:06:00;;;;;;;10.55;4.72;;;;;;;;;;5028460;28;20507;-67
2022/02/10 07:57:41;;;;;;;12.35;4.30;;;;;;;;;;4945194;28;20054;-69
2022/02/10 08:00:52;;;;;;;15.30;4.00;;;;;;;;;;5028819;28;20083;-61
2022/02/10 09:04:25;;;;;;;11.13;3.20;;;;;;;;;;5042370;28;20028;-64
2022/02/10 10:01:40;;;;;;;7.40;3.72;;;;;;;;;;5046844;28;20028;-69
2022/02/10 10:04:34;;;;;;;13.05;4.97;;;;;;;;;;5045854;28;20056;-68
2022/02/10 10:20:39;;;;;;;8.45;3.83;;;;;;;;;;4995232;28;20029;-67
2022/02/10 10:50:50;;;;;;;9.98;4.15;;;;;;;;;;5031494;28;20072;-62
2022/02/10 10:53:56;;;;;;;9.63;3.58;;;;;;;;;;5020420;28;20065;-62
2022/02/10 10:56:44;;;;;;;10.35;4.07;;;;;;;;;;5034539;28;20039;-59
2022/02/10 10:59:38;;;;;;;9.20;3.50;;;;;;;;;;5032741;28;20159;-60
2022/02/10 11:39:22;;;;;;;7.45;3.60;;;;;;;;;;5045848;28;20102;-62
2022/02/10 11:42:19;;;;;;;7.93;4.00;;;;;;;;;;5033815;28;20510;-62
2022/02/10 12:01:29;;;;;;;10.70;3.92;;;;;;;;;;5034204;28;20462;-64
2022/02/10 12:32:52;;;;;;;11.13;4.47;;;;;;;;;;5033014;28;20582;-70
2022/02/10 14:10:31;;;;;;;15.05;7.00;;;;;;;;;;5052014;28;20041;-70
2022/02/10 14:13:16;;;;;;;13.18;6.80;;;;;;;;;;5040780;28;20495;-68
2022/02/10 14:16:27;;;;;;;9.82;6.13;;;;;;;;;;5050165;28;20040;-69
2022/02/10 14:19:15;;;;;;;16.42;6.78;;;;;;;;;;5044478;28;20040;-68
2022/02/10 14:27:49;;;;;;;15.20;7.30;;;;;;;;;;5031358;28;20029;-74
2022/02/10 14:30:35;;;;;;;16.35;8.30;;;;;;;;;;5037615;28;20033;-72
2022/02/10 14:33:26;;;;;;;13.38;6.70;;;;;;;;;;5034681;28;20125;-70
2022/02/10 14:36:18;;;;;;;14.02;6.68;;;;;;;;;;5034942;28;20699;-70
2022/02/10 15:49:30;;;;;;;13.32;6.10;;;;;;;;;;5027514;28;20033;-69
2022/02/10 16:14:37;;;;;;;9.43;5.88;;;;;;;;;;5034228;28;20369;-71
2022/02/10 16:16:57;;;;;;;14.25;5.47;;;;;;;;;;5030620;28;20174;-68
2022/02/10 16:19:46;;;;;;;12.43;5.68;;;;;;;;;;5028286;28;20056;-70
2022/02/10 16:22:37;;;;;;;9.88;5.07;;;;;;;;;;5029631;28;20433;-71
2022/02/10 16:25:24;;;;;;;10.90;4.57;;;;;;;;;;5027269;28;20044;-69
2022/02/10 16:28:22;;;;;;;6.30;4.20;;;;;;;;;;5027317;28;20099;-68
2022/02/10 16:31:09;;;;;;;9.82;4.57;;;;;;;;;;5041323;28;20067;-70
2022/02/10 16:33:57;;;;;;;7.75;3.35;;;;;;;;;;5027052;28;20071;-70
2022/02/10 16:36:42;;;;;;;6.40;3.53;;;;;;;;;;5028524;28;20379;-71
2022/02/10 16:39:27;;;;;;;9.55;4.30;;;;;;;;;;5048201;28;20135;-70
2022/02/10 16:42:14;;;;;;;7.30;4.30;;;;;;;;;;5026592;28;20025;-69
2022/02/10 16:44:59;;;;;;;7.10;3.67;;;;;;;;;;5027456;28;20040;-69
2022/02/10 16:47:44;;;;;;;6.63;3.30;;;;;;;;;;5034461;28;20017;-69
2022/02/10 16:50:30;;;;;;;8.73;3.97;;;;;;;;;;5043419;28;20033;-69
2022/02/10 16:53:19;;;;;;;5.88;3.40;;;;;;;;;;5046526;28;20393;-71
2022/02/10 16:56:13;;;;;;;4.78;3.00;;;;;;;;;;5047165;28;20399;-70
2022/02/10 17:26:07;;;;;;;7.97;3.17;;;;;;;;;;5045919;28;20428;-69
2022/02/10 17:28:55;;;;;;;8.65;2.97;;;;;;;;;;5033206;28;20029;-68
2022/02/10 17:32:05;;;;;;;7.82;3.10;;;;;;;;;;5031550;28;20064;-69
2022/02/10 17:35:16;;;;;;;9.18;3.38;;;;;;;;;;5029250;28;20033;-70
2022/02/10 17:41:36;;;;;;;7.03;4.15;;;;;;;;;;5026427;28;20029;-71
2022/02/10 17:44:54;;;;;;;5.55;2.83;;;;;;;;;;5025585;28;20024;-68
2022/02/10 17:53:47;;;;;;;6.47;3.15;;;;;;;;;;5031787;28;20057;-73
2022/02/10 17:56:33;;;;;;;6.07;3.42;;;;;;;;;;5042351;28;20043;-73
2022/02/10 17:59:20;;;;;;;10.45;3.33;;;;;;;;;;5032967;28;20072;-72
2022/02/10 18:02:06;;;;;;;6.35;3.00;;;;;;;;;;5030349;28;20021;-74
2022/02/10 18:04:51;;;;;;;5.70;2.80;;;;;;;;;;5046591;28;20064;-68
2022/02/10 18:07:39;;;;;;;8.45;3.17;;;;;;;;;;5028829;28;20517;-68
2022/02/10 18:13:30;;;;;;;6.93;3.70;;;;;;;;;;5027918;28;20499;-69
2022/02/10 18:16:24;;;;;;;5.75;3.00;;;;;;;;;;5031114;28;20591;-70
2022/02/10 18:19:17;;;;;;;6.28;3.38;;;;;;;;;;5030943;28;20025;-69
2022/02/10 18:22:26;;;;;;;9.63;3.15;;;;;;;;;;5029590;28;20052;-69
2022/02/10 18:28:16;;;;;;;7.38;3.00;;;;;;;;;;5029174;28;20090;-68
2022/02/10 19:10:00;;;;;;;9.80;3.15;;;;;;;;;;5031341;28;20041;-64
2022/02/10 19:12:48;;;;;;;6.20;2.88;;;;;;;;;;5033835;28;20029;-64
2022/02/10 19:15:34;;;;;;;12.18;4.20;;;;;;;;;;5050438;28;20037;-66
2022/02/10 19:18:19;;;;;;;5.88;2.65;;;;;;;;;;5033371;28;20357;-66
2022/02/10 19:21:04;;;;;;;7.10;3.05;;;;;;;;;;5061910;22;20028;-68
2022/02/10 19:23:50;;;;;;;5.60;2.80;;;;;;;;;;5056071;28;20621;-68
2022/02/10 19:26:35;;;;;;;5.22;3.00;;;;;;;;;;5075641;28;20036;-65
2022/02/10 19:29:21;;;;;;;8.65;4.22;;;;;;;;;;5072258;28;20127;-65
2022/02/10 19:32:14;;;;;;;7.75;3.17;;;;;;;;;;5073343;28;20042;-66
2022/02/10 19:34:59;;;;;;;5.82;3.97;;;;;;;;;;5074389;28;20277;-65
2022/02/10 19:37:47;;;;;;;7.10;3.17;;;;;;;;;;5059901;28;20035;-64
2022/02/10 19:40:37;;;;;;;8.60;3.40;;;;;;;;;;5056795;28;20032;-64
2022/02/10 19:43:25;;;;;;;8.40;3.00;;;;;;;;;;5070252;28;20436;-64
2022/02/10 19:46:11;;;;;;;9.13;3.70;;;;;;;;;;5073531;28;20036;-67
2022/02/10 19:48:57;;;;;;;11.38;4.32;;;;;;;;;;5077493;28;20028;-67
2022/02/10 19:51:42;;;;;;;8.50;3.90;;;;;;;;;;5067285;28;20040;-65
2022/02/10 19:54:30;;;;;;;9.27;3.80;;;;;;;;;;5066293;28;20454;-65
2022/02/10 19:57:20;;;;;;;8.18;3.85;;;;;;;;;;5059777;28;20040;-65
2022/02/10 20:00:09;;;;;;;5.78;3.17;;;;;;;;;;5051797;28;20036;-65
2022/02/10 20:02:55;;;;;;;;;;;;;;;;;;5050111;28;20036;-65
2022/02/10 20:05:45;;;;;;;8.30;3.35;;;;;;;;;;5047768;28;19939;-65
2022/02/10 20:08:31;;;;;;;7.32;3.35;;;;;;;;;;5052615;28;20090;-65
2022/02/10 20:11:16;;;;;;;5.35;3.15;;;;;;;;;;5034019;28;20109;-65
2022/02/10 20:14:01;;;;;;;7.82;3.10;;;;;;;;;;5051551;28;20056;-65
2022/02/10 20:16:47;;;;;;;7.35;3.10;;;;;;;;;;5047986;28;20109;-64
2022/02/10 20:19:33;;;;;;;6.28;3.13;;;;;;;;;;5047000;28;20058;-68
2022/02/10 20:22:18;;;;;;;8.07;3.28;;;;;;;;;;5053408;28;20020;-65
2022/02/10 20:25:04;;;;;;;8.68;4.30;;;;;;;;;;5049195;28;20040;-63
2022/02/10 20:27:49;;;;;;;9.48;4.57;;;;;;;;;;5053692;28;20374;-63
2022/02/10 20:30:35;;;;;;;8.68;3.78;;;;;;;;;;5046402;28;20064;-63
2022/02/10 20:33:23;;;;;;;10.45;3.92;;;;;;;;;;5037240;28;20118;-65
2022/02/10 20:36:09;;;;;;;10.05;3.85;;;;;;;;;;5052736;28;20123;-68
2022/02/10 20:38:58;;;;;;;8.90;3.40;;;;;;;;;;5050464;28;20036;-64
2022/02/10 20:41:49;;;;;;;5.68;3.38;;;;;;;;;;5045573;28;20044;-63
2022/02/10 20:44:36;;;;;;;8.23;3.70;;;;;;;;;;5048020;28;20111;-65
2022/02/10 20:47:24;;;;;;;8.60;3.20;;;;;;;;;;5043288;28;20032;-65
2022/02/10 20:50:09;;;;;;;16.33;5.07;;;;;;;;;;5044055;28;20068;-62
2022/02/10 20:52:54;;;;;;;7.35;4.03;;;;;;;;;;5047705;28;20163;-65
2022/02/10 20:55:43;;;;;;;8.07;3.30;;;;;;;;;;5029980;28;20111;-63
2022/02/10 20:58:29;;;;;;;9.30;3.92;;;;;;;;;;5043523;28;20523;-67
2022/02/10 21:01:15;;;;;;;7.47;3.53;;;;;;;;;;5043547;28;20036;-65
2022/02/10 21:04:01;;;;;;;9.25;4.00;;;;;;;;;;5044453;28;20063;-66
2022/02/10 21:06:56;;;;;;;6.45;3.70;;;;;;;;;;5045760;28;20114;-63
2022/02/10 21:09:57;;;;;;;6.32;3.45;;;;;;;;;;5049529;28;20067;-64
2022/02/10 21:12:44;;;;;;;8.38;4.00;;;;;;;;;;5037159;28;20021;-64
2022/02/10 21:15:37;;;;;;;8.07;3.70;;;;;;;;;;5044898;28;20490;-66
2022/02/10 21:18:24;;;;;;;7.20;3.42;;;;;;;;;;5048251;28;20072;-64
2022/02/10 21:21:14;;;;;;;15.65;4.13;;;;;;;;;;5042763;28;20041;-64
2022/02/10 21:24:06;;;;;;;7.53;3.83;;;;;;;;;;5044768;28;20048;-64
2022/02/10 21:27:13;;;;;;;7.97;3.70;;;;;;;;;;5047377;28;20036;-70
2022/02/10 21:30:05;;;;;;;8.05;3.53;;;;;;;;;;5045529;28;20392;-66
2022/02/10 21:32:54;;;;;;;6.55;3.67;;;;;;;;;;5030230;28;20033;-67
2022/02/10 21:38:27;;;;;;;6.55;3.80;;;;;;;;;;5044009;28;20029;-68
2022/02/10 22:11:32;;;;;;;11.35;5.45;;;;;;;;;;5050476;28;20016;-65
2022/02/10 22:23:32;;;;;;;8.40;3.95;;;;;;;;;;5057586;28;20032;-65
2022/02/10 22:26:21;;;;;;;7.10;3.40;;;;;;;;;;5045221;28;20033;-67
2022/02/10 22:29:12;;;;;;;7.80;3.37;;;;;;;;;;5041072;28;20474;-67
2022/02/10 22:32:17;;;;;;;7.10;3.67;;;;;;;;;;5042864;28;20048;-65
2022/02/10 22:35:02;;;;;;;6.68;3.70;;;;;;;;;;5032800;28;20066;-67
2022/02/10 22:37:50;;;;;;;10.32;4.10;;;;;;;;;;5041495;28;20118;-65
2022/02/10 22:43:23;;;;;;;8.98;3.95;;;;;;;;;;5048685;28;20040;-65
2022/02/10 22:46:09;;;;;;;8.60;3.60;;;;;;;;;;5040949;28;20482;-65
2022/02/10 22:48:54;;;;;;;10.25;4.20;;;;;;;;;;5042246;28;20052;-64
2022/02/10 22:51:40;;;;;;;10.45;4.07;;;;;;;;;;5050257;28;20435;-65
2022/02/10 22:54:26;;;;;;;9.20;3.85;;;;;;;;;;5041125;28;20112;-65
2022/02/10 22:57:12;;;;;;;7.88;4.22;;;;;;;;;;5038760;28;20660;-63
2022/02/10 22:59:58;;;;;;;8.88;3.75;;;;;;;;;;5045814;28;20041;-66
2022/02/10 23:02:44;;;;;;;12.00;4.15;;;;;;;;;;5048649;28;20395;-65
2022/02/10 23:05:29;;;;;;;7.93;3.70;;;;;;;;;;5039657;28;20251;-67
2022/02/10 23:08:15;;;;;;;8.45;4.00;;;;;;;;;;5049340;28;20043;-66
2022/02/10 23:11:00;;;;;;;7.88;4.03;;;;;;;;;;5047288;28;20089;-67
2022/02/10 23:13:46;;;;;;;8.57;4.05;;;;;;;;;;5038771;28;20025;-66
2022/02/10 23:16:31;;;;;;;7.15;3.55;;;;;;;;;;5042519;28;20529;-65
2022/02/10 23:19:16;;;;;;;9.40;3.83;;;;;;;;;;5039037;28;20040;-66
2022/02/10 23:22:02;;;;;;;11.10;4.07;;;;;;;;;;5044162;28;20364;-64
2022/02/10 23:24:47;;;;;;;7.28;3.67;;;;;;;;;;5032899;28;20124;-65
2022/02/10 23:27:32;;;;;;;8.35;3.55;;;;;;;;;;5030001;28;20059;-64
2022/02/10 23:30:21;;;;;;;6.25;3.17;;;;;;;;;;5041825;28;20464;-64
2022/02/10 23:33:16;;;;;;;7.18;3.90;;;;;;;;;;5050338;28;20056;-64
2022/02/10 23:44:49;;;;;;;7.47;4.03;;;;;;;;;;5053753;28;20032;-66
2022/02/10 23:47:34;;;;;;;8.70;4.45;;;;;;;;;;5046588;28;20063;-66
2022/02/10 23:50:25;;;;;;;10.10;4.07;;;;;;;;;;5053813;28;20078;-67
2022/02/10 23:53:11;;;;;;;11.20;4.30;;;;;;;;;;5055173;28;20078;-67
2022/02/10 23:55:59;;;;;;;7.40;3.80;;;;;;;;;;5038132;28;20029;-65
